Frameries, Belgium
Current Conditions -  °F | °C
As of 7:25 AM on Wednesday 26 Nov 2014 (Local Time) from EBCV Reporting Station
Broken Clouds Broken Clouds  
Wind Chill: 43°   Ceiling: 6500
Heat Index: 43°   Visibility: 2.8mi
Dew Point: 41°   Wind: 3mph
Humidity: 93%   Direction: 80°E
Pressure: 29.91"   Gusts: NA
Location:  50.41°N, 3.9°E
Report Text: EBCV 260625Z AUTO 08003KT 4600 SCT022/// BKN065/// BKN080/// 06/05 Q1013 GRN
Loading
Personal Weather Stations






























Interactive Weather Map New forecast layout! Learn more

10-Day Weather Forecast

Advertisements
Track Severe Weather on mobile